Valley Mills, Texas
Current Conditions -  °F | °C
As of 11:55 AM on Tuesday 21 Oct 2014 (Local Time) from KPWG Reporting Station
Clear Clear  
Wind Chill: 77°   Ceiling: Unl
Heat Index: 79°   Visibility: 10mi
Dew Point: 59°   Wind: 3mph
Humidity: 54%   Direction: 130°SE
Pressure: 30.12"   Gusts: NA
Location:  31.66°N, 97.47°W
Report Text: KPWG 211655Z AUTO 13003KT 10SM CLR 25/15 A3012 RMK AO1
Loading
Personal Weather Stations






























Interactive Weather Map New forecast layout! Learn more

10-Day Weather Forecast

Advertisements
Track Severe Weather on mobile